Decoded Metar for KUUU (NEWPORT in RI, USA) (IATA:UUU) | Meteo·Mobile Aviation Weather
aviador You're here:

KUUU Decoded Metar

NEWPORT in RI, USA
Report Time2018-12-17 13:53:00
UTC Time2018-12-17 15:32:41
Flight Rules Old
Wind320° at 10 Gusting to 16 kt
W.Decomp.*RWY 34: 10.0 kt HW 0.9 kt LCW
RWY 04: 4.2 kt HW 9.1 kt LCW
W.Rank320° ranks 9
Current wind is above 320° avg. (8.9)
Visibility9999 m
Phenomena:N/A
Clouds:Overcast 011 Hf
Expected CloudBase > 800 ft AGL from Temp-Dew spread
Ceiling1,100 ft
Temp03°C (ISA -12)
Dew Point01°C (87% RH)
AAT-2.4°C
QNH1004 hPa
Density Alt-850 ft
Elevation167 ft
Report Wrong Elevation
Raw Report
KUUU 171353Z AUTO 32010G16KT 10SM OVC011 03/01 A2964 RMK AO2
SLP037 T00280011=

Extra information for KUUU:More info

Metar Taf Metar & Taf Last 4 Metars F.Rules Stats Wind Profile Meteogram Temp Stats Airport Information Weather charts Add Link Nearby VenuesMetar ALERT Operation Metar Decoded Social comments

AIRNAV info for KUUU